Terminal Aerodrome Forecast
Issued by NWS

Home | Current Version | Previous Version | Text Only | Print | Product List | Glossary On
Versions: 1 2 3 4 5 6 7 8 9 10 11 12 13 14 15 16 17 18 19 20
000
FTUS43 KJKL 262300
TAFSME
TAF
KSME 262320Z 2700/2724 VRB05KT P6SM SCT040 BKN120
     FM270200 VRB04KT P6SM VCSH BKN025
     FM270400 VRB04KT 5SM -RASN BR SCT015 OVC025
     FM270500 VRB05KT 2SM -RASN BR BKN015
     FM271200 33007KT P6SM BKN015
     FM271500 31009KT P6SM BKN040=

USA.gov is the U.S. government's official web portal to all federal, state and local government web resources and services.